sensor_id;sensor_type;location;lat;lon;timestamp;temperature;humidity
52615;DHT22;38508;53.158;6.614;2022-09-09T00:09:34;17.60;99.90
52615;DHT22;38508;53.158;6.614;2022-09-09T00:12:39;17.60;99.90
52615;DHT22;38508;53.158;6.614;2022-09-09T00:15:19;17.60;99.90
52615;DHT22;38508;53.158;6.614;2022-09-09T00:17:58;17.60;99.90
52615;DHT22;38508;53.158;6.614;2022-09-09T00:20:31;17.50;99.90
52615;DHT22;38508;53.158;6.614;2022-09-09T00:23:05;17.50;99.90
52615;DHT22;38508;53.158;6.614;2022-09-09T00:25:45;17.50;99.90
52615;DHT22;38508;53.158;6.614;2022-09-09T00:28:19;17.50;99.90
52615;DHT22;38508;53.158;6.614;2022-09-09T00:30:46;17.50;99.90
52615;DHT22;38508;53.158;6.614;2022-09-09T00:33:16;17.50;99.90
52615;DHT22;38508;53.158;6.614;2022-09-09T00:35:52;17.50;99.90
52615;DHT22;38508;53.158;6.614;2022-09-09T00:38:25;17.40;99.90
52615;DHT22;38508;53.158;6.614;2022-09-09T00:44:32;17.40;99.90
52615;DHT22;38508;53.158;6.614;2022-09-09T00:50:09;17.40;99.90
52615;DHT22;38508;53.158;6.614;2022-09-09T00:53:09;17.40;99.90
52615;DHT22;38508;53.158;6.614;2022-09-09T00:56:05;17.40;99.90
52615;DHT22;38508;53.158;6.614;2022-09-09T00:58:33;17.40;99.90
52615;DHT22;38508;53.158;6.614;2022-09-09T01:03:34;17.30;99.90
52615;DHT22;38508;53.158;6.614;2022-09-09T01:06:34;17.30;99.90
52615;DHT22;38508;53.158;6.614;2022-09-09T01:12:17;17.10;99.90
52615;DHT22;38508;53.158;6.614;2022-09-09T01:14:49;17.00;99.90
52615;DHT22;38508;53.158;6.614;2022-09-09T01:17:44;17.00;99.90
52615;DHT22;38508;53.158;6.614;2022-09-09T01:20:22;17.00;99.90
52615;DHT22;38508;53.158;6.614;2022-09-09T01:23:23;17.00;99.90
52615;DHT22;38508;53.158;6.614;2022-09-09T01:28:50;16.90;99.90
52615;DHT22;38508;53.158;6.614;2022-09-09T01:31:23;16.80;99.90
52615;DHT22;38508;53.158;6.614;2022-09-09T01:33:49;16.80;99.90
52615;DHT22;38508;53.158;6.614;2022-09-09T01:36:33;16.80;99.90
52615;DHT22;38508;53.158;6.614;2022-09-09T01:39:03;16.90;99.90
52615;DHT22;38508;53.158;6.614;2022-09-09T01:41:29;16.90;99.90
52615;DHT22;38508;53.158;6.614;2022-09-09T01:43:55;16.90;99.90
52615;DHT22;38508;53.158;6.614;2022-09-09T01:46:22;16.90;99.90
52615;DHT22;38508;53.158;6.614;2022-09-09T01:48:49;16.90;99.90
52615;DHT22;38508;53.158;6.614;2022-09-09T01:51:15;16.80;99.90
52615;DHT22;38508;53.158;6.614;2022-09-09T01:53:42;16.80;99.90
52615;DHT22;38508;53.158;6.614;2022-09-09T01:59:09;16.80;99.90
52615;DHT22;38508;53.158;6.614;2022-09-09T02:07:00;16.90;99.90
52615;DHT22;38508;53.158;6.614;2022-09-09T02:09:26;16.90;99.90
52615;DHT22;38508;53.158;6.614;2022-09-09T02:12:02;16.80;99.90
52615;DHT22;38508;53.158;6.614;2022-09-09T02:14:34;16.80;99.90
52615;DHT22;38508;53.158;6.614;2022-09-09T02:17:11;16.80;99.90
52615;DHT22;38508;53.158;6.614;2022-09-09T02:19:44;16.70;99.90
52615;DHT22;38508;53.158;6.614;2022-09-09T02:22:11;16.70;99.90
52615;DHT22;38508;53.158;6.614;2022-09-09T02:24:40;16.80;99.90
52615;DHT22;38508;53.158;6.614;2022-09-09T02:27:08;16.80;99.90
52615;DHT22;38508;53.158;6.614;2022-09-09T02:29:38;16.80;99.90
52615;DHT22;38508;53.158;6.614;2022-09-09T02:32:09;16.80;99.90
52615;DHT22;38508;53.158;6.614;2022-09-09T02:34:40;16.90;99.90
52615;DHT22;38508;53.158;6.614;2022-09-09T02:37:09;16.90;99.90
52615;DHT22;38508;53.158;6.614;2022-09-09T02:39:36;17.00;99.90
52615;DHT22;38508;53.158;6.614;2022-09-09T02:42:04;17.10;99.90
52615;DHT22;38508;53.158;6.614;2022-09-09T02:44:30;17.10;99.90
52615;DHT22;38508;53.158;6.614;2022-09-09T02:50:08;17.20;99.90
52615;DHT22;38508;53.158;6.614;2022-09-09T02:52:57;17.20;99.90
52615;DHT22;38508;53.158;6.614;2022-09-09T02:55:48;17.10;99.90
52615;DHT22;38508;53.158;6.614;2022-09-09T02:58:17;17.10;99.90
52615;DHT22;38508;53.158;6.614;2022-09-09T03:00:46;17.20;99.90
52615;DHT22;38508;53.158;6.614;2022-09-09T03:03:12;17.20;99.90
52615;DHT22;38508;53.158;6.614;2022-09-09T03:05:38;17.10;99.90
52615;DHT22;38508;53.158;6.614;2022-09-09T03:08:05;17.10;99.90
52615;DHT22;38508;53.158;6.614;2022-09-09T03:10:32;17.20;99.90
52615;DHT22;38508;53.158;6.614;2022-09-09T03:12:58;17.20;99.90
52615;DHT22;38508;53.158;6.614;2022-09-09T03:15:24;17.10;99.90
52615;DHT22;38508;53.158;6.614;2022-09-09T03:17:56;17.20;99.90
52615;DHT22;38508;53.158;6.614;2022-09-09T03:20:23;17.10;99.90
52615;DHT22;38508;53.158;6.614;2022-09-09T03:22:49;17.10;99.90
52615;DHT22;38508;53.158;6.614;2022-09-09T03:25:15;17.10;99.90
52615;DHT22;38508;53.158;6.614;2022-09-09T03:27:40;17.20;99.90
52615;DHT22;38508;53.158;6.614;2022-09-09T03:30:06;17.30;99.90
52615;DHT22;38508;53.158;6.614;2022-09-09T03:32:32;17.30;99.90
52615;DHT22;38508;53.158;6.614;2022-09-09T03:34:58;17.30;99.90
52615;DHT22;38508;53.158;6.614;2022-09-09T03:37:24;17.40;99.90
52615;DHT22;38508;53.158;6.614;2022-09-09T03:39:49;17.40;99.90
52615;DHT22;38508;53.158;6.614;2022-09-09T03:42:16;17.40;99.90
52615;DHT22;38508;53.158;6.614;2022-09-09T03:44:48;17.50;99.90
52615;DHT22;38508;53.158;6.614;2022-09-09T03:47:19;17.50;99.90
52615;DHT22;38508;53.158;6.614;2022-09-09T03:49:47;17.50;99.90
52615;DHT22;38508;53.158;6.614;2022-09-09T03:52:14;17.60;99.90
52615;DHT22;38508;53.158;6.614;2022-09-09T03:54:40;17.60;99.90
52615;DHT22;38508;53.158;6.614;2022-09-09T03:57:08;17.70;99.90
52615;DHT22;38508;53.158;6.614;2022-09-09T03:59:35;17.70;99.90
52615;DHT22;38508;53.158;6.614;2022-09-09T04:02:00;17.60;99.90
52615;DHT22;38508;53.158;6.614;2022-09-09T04:04:26;17.70;99.90
52615;DHT22;38508;53.158;6.614;2022-09-09T04:06:53;17.60;99.90
52615;DHT22;38508;53.158;6.614;2022-09-09T04:09:19;17.60;99.90
52615;DHT22;38508;53.158;6.614;2022-09-09T04:11:44;17.60;99.90
52615;DHT22;38508;53.158;6.614;2022-09-09T04:14:11;17.50;99.90
52615;DHT22;38508;53.158;6.614;2022-09-09T04:16:38;17.50;99.90
52615;DHT22;38508;53.158;6.614;2022-09-09T04:19:04;17.50;99.90
52615;DHT22;38508;53.158;6.614;2022-09-09T04:21:32;17.60;99.90
52615;DHT22;38508;53.158;6.614;2022-09-09T04:23:57;17.50;99.90
52615;DHT22;38508;53.158;6.614;2022-09-09T04:26:23;17.50;99.90
52615;DHT22;38508;53.158;6.614;2022-09-09T04:28:49;17.40;99.90
52615;DHT22;38508;53.158;6.614;2022-09-09T04:31:18;17.40;99.90
52615;DHT22;38508;53.158;6.614;2022-09-09T04:33:45;17.30;99.90
52615;DHT22;38508;53.158;6.614;2022-09-09T04:36:12;17.40;99.90
52615;DHT22;38508;53.158;6.614;2022-09-09T04:38:38;17.40;99.90
52615;DHT22;38508;53.158;6.614;2022-09-09T04:41:04;17.30;99.90
52615;DHT22;38508;53.158;6.614;2022-09-09T04:43:30;17.20;99.90
52615;DHT22;38508;53.158;6.614;2022-09-09T04:45:56;17.20;99.90
52615;DHT22;38508;53.158;6.614;2022-09-09T04:48:22;17.20;99.90
52615;DHT22;38508;53.158;6.614;2022-09-09T04:51:06;17.00;99.90
52615;DHT22;38508;53.158;6.614;2022-09-09T04:53:32;17.00;99.90
52615;DHT22;38508;53.158;6.614;2022-09-09T04:56:12;17.00;99.90
52615;DHT22;38508;53.158;6.614;2022-09-09T04:58:39;17.10;99.90
52615;DHT22;38508;53.158;6.614;2022-09-09T05:01:12;16.90;99.90
52615;DHT22;38508;53.158;6.614;2022-09-09T05:03:38;17.00;99.90
52615;DHT22;38508;53.158;6.614;2022-09-09T05:06:09;17.00;99.90
52615;DHT22;38508;53.158;6.614;2022-09-09T05:08:37;16.90;99.90
52615;DHT22;38508;53.158;6.614;2022-09-09T05:11:12;16.80;99.90
52615;DHT22;38508;53.158;6.614;2022-09-09T05:13:37;16.90;99.90
52615;DHT22;38508;53.158;6.614;2022-09-09T05:16:03;16.90;99.90
52615;DHT22;38508;53.158;6.614;2022-09-09T05:18:29;17.10;99.90
52615;DHT22;38508;53.158;6.614;2022-09-09T05:20:59;17.10;99.90
52615;DHT22;38508;53.158;6.614;2022-09-09T05:23:25;17.00;99.90
52615;DHT22;38508;53.158;6.614;2022-09-09T05:25:58;16.80;99.90
52615;DHT22;38508;53.158;6.614;2022-09-09T05:28:27;16.90;99.90
52615;DHT22;38508;53.158;6.614;2022-09-09T05:31:01;16.80;99.90
52615;DHT22;38508;53.158;6.614;2022-09-09T05:33:30;16.70;99.90
52615;DHT22;38508;53.158;6.614;2022-09-09T05:36:01;16.60;99.90
52615;DHT22;38508;53.158;6.614;2022-09-09T05:38:28;16.40;99.90
52615;DHT22;38508;53.158;6.614;2022-09-09T05:40:55;16.60;99.90
52615;DHT22;38508;53.158;6.614;2022-09-09T05:43:24;16.70;99.90
52615;DHT22;38508;53.158;6.614;2022-09-09T05:46:04;16.70;99.90
52615;DHT22;38508;53.158;6.614;2022-09-09T05:48:32;16.80;99.90
52615;DHT22;38508;53.158;6.614;2022-09-09T05:51:02;16.80;99.90
52615;DHT22;38508;53.158;6.614;2022-09-09T05:53:32;16.80;99.90
52615;DHT22;38508;53.158;6.614;2022-09-09T05:56:04;17.00;99.90
52615;DHT22;38508;53.158;6.614;2022-09-09T05:58:34;16.90;99.90
52615;DHT22;38508;53.158;6.614;2022-09-09T06:01:01;16.90;99.90
52615;DHT22;38508;53.158;6.614;2022-09-09T06:03:27;16.90;99.90
52615;DHT22;38508;53.158;6.614;2022-09-09T06:06:00;16.80;99.90
52615;DHT22;38508;53.158;6.614;2022-09-09T06:08:26;16.90;99.90
52615;DHT22;38508;53.158;6.614;2022-09-09T06:10:52;17.10;99.90
52615;DHT22;38508;53.158;6.614;2022-09-09T06:13:18;17.00;99.90
52615;DHT22;38508;53.158;6.614;2022-09-09T06:15:52;16.90;99.90
52615;DHT22;38508;53.158;6.614;2022-09-09T06:18:18;17.00;99.90
52615;DHT22;38508;53.158;6.614;2022-09-09T06:21:01;17.00;99.90
52615;DHT22;38508;53.158;6.614;2022-09-09T06:23:29;17.00;99.90
52615;DHT22;38508;53.158;6.614;2022-09-09T06:26:05;16.90;99.90
52615;DHT22;38508;53.158;6.614;2022-09-09T06:28:32;16.90;99.90
52615;DHT22;38508;53.158;6.614;2022-09-09T06:31:06;17.00;99.90
52615;DHT22;38508;53.158;6.614;2022-09-09T06:33:34;16.90;99.90
52615;DHT22;38508;53.158;6.614;2022-09-09T06:36:01;17.00;99.90
52615;DHT22;38508;53.158;6.614;2022-09-09T06:38:27;16.90;99.90
52615;DHT22;38508;53.158;6.614;2022-09-09T06:40:54;17.00;99.90
52615;DHT22;38508;53.158;6.614;2022-09-09T06:43:22;16.90;99.90
52615;DHT22;38508;53.158;6.614;2022-09-09T06:45:59;16.90;99.90
52615;DHT22;38508;53.158;6.614;2022-09-09T06:48:26;16.90;99.90
52615;DHT22;38508;53.158;6.614;2022-09-09T06:53:54;17.00;99.90
52615;DHT22;38508;53.158;6.614;2022-09-09T06:56:23;17.00;99.90
52615;DHT22;38508;53.158;6.614;2022-09-09T06:58:50;17.00;99.90
52615;DHT22;38508;53.158;6.614;2022-09-09T07:01:19;16.90;99.90
52615;DHT22;38508;53.158;6.614;2022-09-09T07:03:47;16.90;99.90
52615;DHT22;38508;53.158;6.614;2022-09-09T07:06:15;17.00;99.90
52615;DHT22;38508;53.158;6.614;2022-09-09T07:08:43;17.00;99.90
52615;DHT22;38508;53.158;6.614;2022-09-09T07:11:10;17.10;99.90
52615;DHT22;38508;53.158;6.614;2022-09-09T07:13:36;17.20;99.90
52615;DHT22;38508;53.158;6.614;2022-09-09T07:16:07;17.00;99.90
52615;DHT22;38508;53.158;6.614;2022-09-09T07:18:33;17.10;99.90
52615;DHT22;38508;53.158;6.614;2022-09-09T07:21:00;17.20;99.90
52615;DHT22;38508;53.158;6.614;2022-09-09T07:23:28;17.20;99.90
52615;DHT22;38508;53.158;6.614;2022-09-09T07:25:54;17.30;99.90
52615;DHT22;38508;53.158;6.614;2022-09-09T07:28:20;17.30;99.90
52615;DHT22;38508;53.158;6.614;2022-09-09T07:31:01;17.50;99.90
52615;DHT22;38508;53.158;6.614;2022-09-09T07:33:31;17.60;99.90
52615;DHT22;38508;53.158;6.614;2022-09-09T07:36:17;17.70;99.90
52615;DHT22;38508;53.158;6.614;2022-09-09T07:38:47;17.50;99.90
52615;DHT22;38508;53.158;6.614;2022-09-09T07:41:29;17.70;99.90
52615;DHT22;38508;53.158;6.614;2022-09-09T07:43:56;17.80;99.90
52615;DHT22;38508;53.158;6.614;2022-09-09T07:46:24;17.80;99.90
52615;DHT22;38508;53.158;6.614;2022-09-09T07:48:53;17.80;99.90
52615;DHT22;38508;53.158;6.614;2022-09-09T07:51:25;18.00;99.90
52615;DHT22;38508;53.158;6.614;2022-09-09T07:53:56;18.10;99.90
52615;DHT22;38508;53.158;6.614;2022-09-09T07:56:26;18.20;99.90
52615;DHT22;38508;53.158;6.614;2022-09-09T07:58:53;18.30;99.90
52615;DHT22;38508;53.158;6.614;2022-09-09T08:04:01;18.50;99.90
52615;DHT22;38508;53.158;6.614;2022-09-09T08:06:31;18.40;99.90
52615;DHT22;38508;53.158;6.614;2022-09-09T08:08:58;18.30;99.90
52615;DHT22;38508;53.158;6.614;2022-09-09T08:11:26;18.50;99.90
52615;DHT22;38508;53.158;6.614;2022-09-09T08:13:53;18.50;99.90
52615;DHT22;38508;53.158;6.614;2022-09-09T08:16:21;18.40;99.90
52615;DHT22;38508;53.158;6.614;2022-09-09T08:18:48;18.50;99.90
52615;DHT22;38508;53.158;6.614;2022-09-09T08:21:23;18.50;99.90
52615;DHT22;38508;53.158;6.614;2022-09-09T08:23:51;18.80;99.90
52615;DHT22;38508;53.158;6.614;2022-09-09T08:26:38;18.70;99.90
52615;DHT22;38508;53.158;6.614;2022-09-09T08:29:06;18.90;99.90
52615;DHT22;38508;53.158;6.614;2022-09-09T08:31:34;18.90;99.90
52615;DHT22;38508;53.158;6.614;2022-09-09T08:34:00;19.00;99.90
52615;DHT22;38508;53.158;6.614;2022-09-09T08:36:30;19.10;99.90
52615;DHT22;38508;53.158;6.614;2022-09-09T08:38:59;19.10;99.90
52615;DHT22;38508;53.158;6.614;2022-09-09T08:52:02;19.10;99.90
52615;DHT22;38508;53.158;6.614;2022-09-09T08:54:33;19.10;99.90
52615;DHT22;38508;53.158;6.614;2022-09-09T08:57:00;19.20;99.90
52615;DHT22;38508;53.158;6.614;2022-09-09T08:59:25;19.30;99.90
52615;DHT22;38508;53.158;6.614;2022-09-09T09:02:00;19.30;99.90
52615;DHT22;38508;53.158;6.614;2022-09-09T09:07:38;19.70;99.90
52615;DHT22;38508;53.158;6.614;2022-09-09T09:12:56;19.60;99.90
52615;DHT22;38508;53.158;6.614;2022-09-09T09:15:41;19.60;99.90
52615;DHT22;38508;53.158;6.614;2022-09-09T09:18:10;19.60;99.90
52615;DHT22;38508;53.158;6.614;2022-09-09T09:20:50;19.70;99.90
52615;DHT22;38508;53.158;6.614;2022-09-09T09:23:24;19.80;99.90
52615;DHT22;38508;53.158;6.614;2022-09-09T09:25:56;19.90;99.90
52615;DHT22;38508;53.158;6.614;2022-09-09T09:28:27;20.00;99.90
52615;DHT22;38508;53.158;6.614;2022-09-09T09:31:11;19.90;99.90
52615;DHT22;38508;53.158;6.614;2022-09-09T09:36:09;19.90;99.90
52615;DHT22;38508;53.158;6.614;2022-09-09T09:38:36;19.70;99.90
52615;DHT22;38508;53.158;6.614;2022-09-09T09:41:03;19.80;99.90
52615;DHT22;38508;53.158;6.614;2022-09-09T09:43:30;19.70;99.90
52615;DHT22;38508;53.158;6.614;2022-09-09T09:45:57;19.70;99.90
52615;DHT22;38508;53.158;6.614;2022-09-09T09:48:23;19.70;99.90
52615;DHT22;38508;53.158;6.614;2022-09-09T09:53:46;19.70;99.90
52615;DHT22;38508;53.158;6.614;2022-09-09T09:56:13;19.70;99.90
52615;DHT22;38508;53.158;6.614;2022-09-09T09:58:50;19.90;99.90
52615;DHT22;38508;53.158;6.614;2022-09-09T10:01:28;19.90;99.90
52615;DHT22;38508;53.158;6.614;2022-09-09T10:04:15;19.80;99.90
52615;DHT22;38508;53.158;6.614;2022-09-09T10:06:41;19.80;99.90
52615;DHT22;38508;53.158;6.614;2022-09-09T10:19:45;21.30;99.90
52615;DHT22;38508;53.158;6.614;2022-09-09T10:22:31;21.50;99.90
52615;DHT22;38508;53.158;6.614;2022-09-09T10:33:50;21.30;99.90
52615;DHT22;38508;53.158;6.614;2022-09-09T10:36:20;21.00;99.90
52615;DHT22;38508;53.158;6.614;2022-09-09T10:38:47;21.00;99.90
52615;DHT22;38508;53.158;6.614;2022-09-09T10:57:59;21.80;99.90
52615;DHT22;38508;53.158;6.614;2022-09-09T11:00:36;21.90;99.90
52615;DHT22;38508;53.158;6.614;2022-09-09T11:03:04;21.80;99.90
52615;DHT22;38508;53.158;6.614;2022-09-09T11:08:12;21.60;99.90
52615;DHT22;38508;53.158;6.614;2022-09-09T11:11:03;21.50;99.90
52615;DHT22;38508;53.158;6.614;2022-09-09T11:16:59;21.20;99.90
52615;DHT22;38508;53.158;6.614;2022-09-09T11:19:45;21.10;99.90
52615;DHT22;38508;53.158;6.614;2022-09-09T11:22:36;21.60;99.90
52615;DHT22;38508;53.158;6.614;2022-09-09T11:25:17;22.30;99.90
52615;DHT22;38508;53.158;6.614;2022-09-09T11:28:10;22.40;99.90
52615;DHT22;38508;53.158;6.614;2022-09-09T11:42:07;23.10;99.90
52615;DHT22;38508;53.158;6.614;2022-09-09T11:44:33;22.60;99.90
52615;DHT22;38508;53.158;6.614;2022-09-09T11:46:58;22.30;99.90
52615;DHT22;38508;53.158;6.614;2022-09-09T11:49:41;22.20;99.90
52615;DHT22;38508;53.158;6.614;2022-09-09T11:52:23;22.10;99.90
52615;DHT22;38508;53.158;6.614;2022-09-09T11:54:51;22.30;99.90
52615;DHT22;38508;53.158;6.614;2022-09-09T11:57:27;22.40;99.90
52615;DHT22;38508;53.158;6.614;2022-09-09T11:59:56;22.20;99.90
52615;DHT22;38508;53.158;6.614;2022-09-09T12:02:28;22.20;99.90
52615;DHT22;38508;53.158;6.614;2022-09-09T12:05:05;22.50;99.90
52615;DHT22;38508;53.158;6.614;2022-09-09T12:07:55;22.70;99.90
52615;DHT22;38508;53.158;6.614;2022-09-09T12:10:26;22.70;99.90
52615;DHT22;38508;53.158;6.614;2022-09-09T12:12:52;22.90;99.90
52615;DHT22;38508;53.158;6.614;2022-09-09T12:15:22;23.00;99.90
52615;DHT22;38508;53.158;6.614;2022-09-09T12:17:53;23.20;99.90
52615;DHT22;38508;53.158;6.614;2022-09-09T12:20:30;23.10;99.90
52615;DHT22;38508;53.158;6.614;2022-09-09T12:33:37;22.60;99.90
52615;DHT22;38508;53.158;6.614;2022-09-09T12:36:06;22.50;99.90
52615;DHT22;38508;53.158;6.614;2022-09-09T12:38:38;22.30;99.90
52615;DHT22;38508;53.158;6.614;2022-09-09T12:41:04;22.30;99.90
52615;DHT22;38508;53.158;6.614;2022-09-09T12:43:30;22.30;99.90
52615;DHT22;38508;53.158;6.614;2022-09-09T12:46:24;22.30;99.90
52615;DHT22;38508;53.158;6.614;2022-09-09T12:48:53;22.40;99.90
52615;DHT22;38508;53.158;6.614;2022-09-09T12:51:24;22.50;99.90
52615;DHT22;38508;53.158;6.614;2022-09-09T12:53:52;22.40;99.90
52615;DHT22;38508;53.158;6.614;2022-09-09T12:56:20;22.30;99.90
52615;DHT22;38508;53.158;6.614;2022-09-09T12:58:49;23.00;99.90
52615;DHT22;38508;53.158;6.614;2022-09-09T13:01:28;23.30;99.90
52615;DHT22;38508;53.158;6.614;2022-09-09T13:03:55;23.50;99.90
52615;DHT22;38508;53.158;6.614;2022-09-09T13:06:28;23.80;99.90
52615;DHT22;38508;53.158;6.614;2022-09-09T13:08:56;24.10;99.90
52615;DHT22;38508;53.158;6.614;2022-09-09T13:11:42;24.10;99.90
52615;DHT22;38508;53.158;6.614;2022-09-09T13:14:38;23.60;99.90
52615;DHT22;38508;53.158;6.614;2022-09-09T13:17:05;23.60;99.90
52615;DHT22;38508;53.158;6.614;2022-09-09T13:19:36;23.90;99.90
52615;DHT22;38508;53.158;6.614;2022-09-09T13:22:21;24.10;99.60
52615;DHT22;38508;53.158;6.614;2022-09-09T13:25:03;23.80;99.50
52615;DHT22;38508;53.158;6.614;2022-09-09T13:27:37;23.70;99.90
52615;DHT22;38508;53.158;6.614;2022-09-09T13:30:21;23.60;99.80
52615;DHT22;38508;53.158;6.614;2022-09-09T13:33:19;23.40;99.90
52615;DHT22;38508;53.158;6.614;2022-09-09T13:35:48;23.30;99.90
52615;DHT22;38508;53.158;6.614;2022-09-09T13:38:16;22.90;99.60
52615;DHT22;38508;53.158;6.614;2022-09-09T13:41:05;22.50;99.90
52615;DHT22;38508;53.158;6.614;2022-09-09T13:43:36;22.30;99.90
52615;DHT22;38508;53.158;6.614;2022-09-09T13:46:36;22.20;99.90
52615;DHT22;38508;53.158;6.614;2022-09-09T13:49:21;22.10;99.90
52615;DHT22;38508;53.158;6.614;2022-09-09T13:51:49;21.90;99.90
52615;DHT22;38508;53.158;6.614;2022-09-09T13:54:20;22.00;99.90
52615;DHT22;38508;53.158;6.614;2022-09-09T13:56:46;22.30;99.90
52615;DHT22;38508;53.158;6.614;2022-09-09T13:59:17;22.40;99.90
52615;DHT22;38508;53.158;6.614;2022-09-09T14:01:45;22.70;99.90
52615;DHT22;38508;53.158;6.614;2022-09-09T14:04:11;22.70;99.90
52615;DHT22;38508;53.158;6.614;2022-09-09T14:06:38;22.40;99.70
52615;DHT22;38508;53.158;6.614;2022-09-09T14:09:11;22.40;99.90
52615;DHT22;38508;53.158;6.614;2022-09-09T14:11:37;22.50;99.40
52615;DHT22;38508;53.158;6.614;2022-09-09T14:14:02;22.30;99.70
52615;DHT22;38508;53.158;6.614;2022-09-09T14:16:29;22.20;99.60
52615;DHT22;38508;53.158;6.614;2022-09-09T14:18:54;22.00;99.90
52615;DHT22;38508;53.158;6.614;2022-09-09T14:21:25;21.80;99.90
52615;DHT22;38508;53.158;6.614;2022-09-09T14:23:51;21.90;99.90
52615;DHT22;38508;53.158;6.614;2022-09-09T14:26:18;22.00;99.90
52615;DHT22;38508;53.158;6.614;2022-09-09T14:28:47;21.90;99.90
52615;DHT22;38508;53.158;6.614;2022-09-09T14:31:12;21.90;99.90
52615;DHT22;38508;53.158;6.614;2022-09-09T14:33:39;22.10;99.90
52615;DHT22;38508;53.158;6.614;2022-09-09T14:36:05;22.00;99.90
52615;DHT22;38508;53.158;6.614;2022-09-09T14:38:33;22.00;99.90
52615;DHT22;38508;53.158;6.614;2022-09-09T14:41:02;21.90;99.90
52615;DHT22;38508;53.158;6.614;2022-09-09T14:43:29;21.50;99.90
52615;DHT22;38508;53.158;6.614;2022-09-09T14:46:04;20.90;99.90
52615;DHT22;38508;53.158;6.614;2022-09-09T14:48:31;20.60;99.90
52615;DHT22;38508;53.158;6.614;2022-09-09T14:50:56;20.60;99.90
52615;DHT22;38508;53.158;6.614;2022-09-09T14:53:22;20.50;99.90
52615;DHT22;38508;53.158;6.614;2022-09-09T14:55:48;20.50;99.90
52615;DHT22;38508;53.158;6.614;2022-09-09T14:58:14;20.70;99.90
52615;DHT22;38508;53.158;6.614;2022-09-09T15:00:40;20.90;99.90
52615;DHT22;38508;53.158;6.614;2022-09-09T15:03:06;21.10;99.90
52615;DHT22;38508;53.158;6.614;2022-09-09T15:05:32;21.60;99.90
52615;DHT22;38508;53.158;6.614;2022-09-09T15:07:57;22.30;99.90
52615;DHT22;38508;53.158;6.614;2022-09-09T15:10:24;23.30;99.90
52615;DHT22;38508;53.158;6.614;2022-09-09T15:12:49;24.00;99.90
52615;DHT22;38508;53.158;6.614;2022-09-09T15:15:15;24.30;99.90
52615;DHT22;38508;53.158;6.614;2022-09-09T15:17:41;23.90;99.90
52615;DHT22;38508;53.158;6.614;2022-09-09T15:20:07;23.70;99.90
52615;DHT22;38508;53.158;6.614;2022-09-09T15:22:33;23.30;99.90
52615;DHT22;38508;53.158;6.614;2022-09-09T15:24:59;22.90;99.90
52615;DHT22;38508;53.158;6.614;2022-09-09T15:27:25;22.90;99.90
52615;DHT22;38508;53.158;6.614;2022-09-09T15:29:50;22.70;99.90
52615;DHT22;38508;53.158;6.614;2022-09-09T15:32:17;22.70;99.90
52615;DHT22;38508;53.158;6.614;2022-09-09T15:34:43;23.00;99.90
52615;DHT22;38508;53.158;6.614;2022-09-09T15:37:12;22.90;99.90
52615;DHT22;38508;53.158;6.614;2022-09-09T15:39:40;23.20;99.90
52615;DHT22;38508;53.158;6.614;2022-09-09T15:42:06;23.20;99.90
52615;DHT22;38508;53.158;6.614;2022-09-09T15:44:43;23.20;99.90
52615;DHT22;38508;53.158;6.614;2022-09-09T15:47:11;23.00;99.90
52615;DHT22;38508;53.158;6.614;2022-09-09T15:49:38;22.90;99.90
52615;DHT22;38508;53.158;6.614;2022-09-09T15:52:04;22.50;99.90
52615;DHT22;38508;53.158;6.614;2022-09-09T15:54:34;22.30;99.90
52615;DHT22;38508;53.158;6.614;2022-09-09T15:57:03;22.20;99.90
52615;DHT22;38508;53.158;6.614;2022-09-09T15:59:30;22.20;99.90
52615;DHT22;38508;53.158;6.614;2022-09-09T16:01:57;22.00;99.90
52615;DHT22;38508;53.158;6.614;2022-09-09T16:04:26;21.90;99.90
52615;DHT22;38508;53.158;6.614;2022-09-09T16:06:53;21.80;99.90
52615;DHT22;38508;53.158;6.614;2022-09-09T16:09:20;21.50;99.90
52615;DHT22;38508;53.158;6.614;2022-09-09T16:11:46;21.20;99.90
52615;DHT22;38508;53.158;6.614;2022-09-09T16:14:14;21.10;99.90
52615;DHT22;38508;53.158;6.614;2022-09-09T16:16:41;21.00;99.90
52615;DHT22;38508;53.158;6.614;2022-09-09T16:19:09;21.10;99.90
52615;DHT22;38508;53.158;6.614;2022-09-09T16:21:47;21.20;99.90
52615;DHT22;38508;53.158;6.614;2022-09-09T16:24:17;21.20;99.90
52615;DHT22;38508;53.158;6.614;2022-09-09T16:26:46;21.10;99.90
52615;DHT22;38508;53.158;6.614;2022-09-09T16:29:13;21.10;99.90
52615;DHT22;38508;53.158;6.614;2022-09-09T16:31:39;21.00;99.90
52615;DHT22;38508;53.158;6.614;2022-09-09T16:34:06;20.90;99.90
52615;DHT22;38508;53.158;6.614;2022-09-09T16:36:33;20.80;99.90
52615;DHT22;38508;53.158;6.614;2022-09-09T16:39:04;20.70;99.90
52615;DHT22;38508;53.158;6.614;2022-09-09T16:41:31;20.60;99.90
52615;DHT22;38508;53.158;6.614;2022-09-09T16:44:02;20.50;99.90
52615;DHT22;38508;53.158;6.614;2022-09-09T16:46:29;20.50;99.90
52615;DHT22;38508;53.158;6.614;2022-09-09T16:48:57;20.60;99.90
52615;DHT22;38508;53.158;6.614;2022-09-09T16:51:31;20.60;99.90
52615;DHT22;38508;53.158;6.614;2022-09-09T16:53:59;20.50;99.90
52615;DHT22;38508;53.158;6.614;2022-09-09T16:56:29;20.50;99.90
52615;DHT22;38508;53.158;6.614;2022-09-09T16:59:06;20.50;99.90
52615;DHT22;38508;53.158;6.614;2022-09-09T17:01:34;20.60;99.90
52615;DHT22;38508;53.158;6.614;2022-09-09T17:04:04;20.40;99.90
52615;DHT22;38508;53.158;6.614;2022-09-09T17:06:32;20.40;99.90
52615;DHT22;38508;53.158;6.614;2022-09-09T17:09:06;20.50;99.90
52615;DHT22;38508;53.158;6.614;2022-09-09T17:11:32;20.50;99.90
52615;DHT22;38508;53.158;6.614;2022-09-09T17:13:58;20.50;99.90
52615;DHT22;38508;53.158;6.614;2022-09-09T17:16:28;20.40;99.90
52615;DHT22;38508;53.158;6.614;2022-09-09T17:18:54;20.40;99.90
52615;DHT22;38508;53.158;6.614;2022-09-09T17:21:22;20.40;99.90
52615;DHT22;38508;53.158;6.614;2022-09-09T17:23:49;20.40;99.90
52615;DHT22;38508;53.158;6.614;2022-09-09T17:26:17;20.30;99.90
52615;DHT22;38508;53.158;6.614;2022-09-09T17:28:44;20.20;99.90
52615;DHT22;38508;53.158;6.614;2022-09-09T17:31:17;20.10;99.90
52615;DHT22;38508;53.158;6.614;2022-09-09T17:33:48;20.20;99.90
52615;DHT22;38508;53.158;6.614;2022-09-09T17:36:20;20.20;99.90
52615;DHT22;38508;53.158;6.614;2022-09-09T17:38:47;20.10;99.90
52615;DHT22;38508;53.158;6.614;2022-09-09T17:43:39;20.10;99.90
52615;DHT22;38508;53.158;6.614;2022-09-09T17:48:35;20.10;99.90
52615;DHT22;38508;53.158;6.614;2022-09-09T17:51:04;20.10;99.90
52615;DHT22;38508;53.158;6.614;2022-09-09T17:53:30;20.00;99.90
52615;DHT22;38508;53.158;6.614;2022-09-09T17:56:05;20.00;99.90
52615;DHT22;38508;53.158;6.614;2022-09-09T17:58:31;20.00;99.90
52615;DHT22;38508;53.158;6.614;2022-09-09T18:01:05;19.90;99.90
52615;DHT22;38508;53.158;6.614;2022-09-09T18:03:39;19.90;99.90